Apache Junction, AZ (85117)

6:13 AM MST on February 08, 2016 (GMT -0700)
Queen Valley | | Change Station
CLOSE
Current Station
Personal Weather Station
Location: Queen Valley, AZ
Elevation: 2028 ft
Nearby Weather Stations

Elev 2028 ft 33.30 °N, 111.29 °W | Updated 15 seconds ago

Clear
Clear
62.2 °F
Feels Like 62.2 °F
N
8.9
Wind Variable Wind from NE

Today
High -- | Low -- °F
--% Chance of Precip.
Yesterday
High -- | Low -- °F
Precip. -- in
Pressure 30.20 in
Visibility 20.0 miles
Clouds Few 25000 ft
Dew Point 19 °F
Humidity 19%
Rainfall 0.00 in
Snow Depth Not available.
7:16 AM 6:03 PM
Waning Crescent, 0% visible
METAR KIWA 081247Z 21004KT 20SM FEW250 08/M02 A3020
Pressure 30.20 in
Visibility 20.0 miles
Clouds Few 25000 ft
Dew Point 19 °F
Humidity 19%
Rainfall 0.00 in
Snow Depth Not available.
7:16 AM 6:03 PM
Waning Crescent, 0% visible
METAR KIWA 081247Z 21004KT 20SM FEW250 08/M02 A3020

10-Day Weather Forecast

Almanac

Astronomy

Feb. 08, 2016 Rise Set
Actual Time
Civil Twilight
Nautical Twilight
Astronomical Twilight
Moon
Length of Visible Light
Length of Day
Tomorrow will be .
, % of the Moon is Illuminated

Today's Extremes

State Highs State Lows

Community

WunderPhotos

Upload Photos

1,891,434 photos uploaded!

WunderBlog® & News

Nearby

Air Quality

  Air Quality AQ Index Pollutant
Not available.

Snow Depth

Station Depth Elevation

Earthquake Activity

City Distance Mag. Time & Date
Minimum magnitude displayed is 2.5.

Coastal Water Temperatures

Place Temperature

Stations

Nearby Weather Stations

Station Location Temp. Windchill Dew Point Humidity Wind Precip. Elev Updated Type
                   

Watches & Warnings

There are currently no watches in effect.